Geronimo — PD6553 — position and weather

sailwx.info

Track history (hours):
 
Tides and Currents Weather Stations Pressure Air Temp Water Temp Dewpoint Dewpoint Depression Visibility Wind Speed Wind Dir Waves Ship Positions

Geronimo

Last reported at 2017-Mar-03 20:11 UTC. Time now 2017-Mar-23 12:34 UTC.
Position N 16°02' W 061°47'.
Warning: this ship's position is 19 days out of date.

Length 20 m; draft 2.9 m.

Type: Sailing vessel. MMSI: 244620501.

Date/timePositionNaut miles runAvg speedWind from/ knotsBaromVisibWave heightAir tempDewpointWater temp
2017-Mar-03 20:11N 16°02' W 061°47'6 7.6
2017-Mar-03 19:26N 16°08' W 061°48'8 8.4
2017-Mar-03 18:28N 16°16' W 061°49'3 1.4
2017-Mar-03 16:31N 16°18' W 061°48'0 0.0
2017-Mar-03 15:04N 16°18' W 061°48'0 0.0
2017-Mar-03 14:33N 16°18' W 061°48'0 0.0
2017-Mar-03 13:33N 16°18' W 061°48'0 0.0
2017-Mar-03 12:32N 16°18' W 061°48'0 0.0
2017-Mar-03 11:33N 16°18' W 061°48'0 0.0
2017-Mar-03 10:33N 16°18' W 061°48'0 0.0
2017-Mar-03 09:25N 16°18' W 061°48'0 0.0
2017-Mar-03 08:33N 16°18' W 061°48'0 0.0
2017-Mar-03 07:33N 16°18' W 061°48'0 0.0
2017-Mar-03 06:27N 16°18' W 061°48'0 0.0
2017-Mar-03 05:33N 16°18' W 061°48'0 0.0
2017-Mar-03 04:32N 16°18' W 061°48'0 0.0
2017-Mar-03 03:33N 16°18' W 061°48'0 0.0
2017-Mar-03 02:31N 16°18' W 061°48'0 0.0
2017-Mar-03 01:29N 16°18' W 061°48'0 0.0
2017-Mar-02 23:33N 16°18' W 061°48'5 2.0
2017-Mar-02 21:06N 16°23' W 061°49'5 9.6
2017-Mar-02 20:33N 16°28' W 061°49'9 9.4
2017-Mar-02 19:33N 16°38' W 061°49'9 9.1
2017-Mar-02 18:33N 16°47' W 061°48'9 9.1
2017-Mar-02 17:33N 16°56' W 061°47'5 5.1
2017-Mar-02 16:33N 17°01' W 061°47'0 0.0
2017-Mar-02 15:33N 17°01' W 061°47'0 0.0
2017-Mar-02 14:33N 17°01' W 061°47'0 0.0
2017-Mar-02 13:33N 17°01' W 061°47'0 0.0
2017-Mar-02 12:33N 17°01' W 061°47'0 0.0
2017-Mar-02 11:33N 17°01' W 061°47'0 0.0
2017-Mar-02 10:33N 17°01' W 061°47'0 0.0
2017-Mar-02 09:33N 17°01' W 061°47'0 0.0
2017-Mar-02 08:33N 17°01' W 061°47'0 0.0
2017-Mar-02 07:33N 17°01' W 061°47'0 0.0
2017-Mar-02 06:33N 17°01' W 061°47'0 0.0
2017-Mar-02 05:33N 17°01' W 061°47'0 0.0
2017-Mar-02 04:33N 17°01' W 061°47'0 0.0
2017-Mar-02 03:33N 17°01' W 061°47'0 0.0
2017-Mar-02 02:33N 17°01' W 061°47'0 0.0
2017-Mar-02 01:33N 17°01' W 061°47'0 0.0
2017-Mar-02 00:33N 17°01' W 061°47'0 0.0
2017-Mar-01 23:33N 17°01' W 061°47'0 0.0
2017-Mar-01 22:33N 17°01' W 061°47'0 0.0
2017-Mar-01 21:33N 17°01' W 061°47'0 0.0
2017-Mar-01 20:33N 17°01' W 061°47'0 0.0
2017-Mar-01 19:33N 17°01' W 061°47'0 0.0
2017-Mar-01 18:33N 17°01' W 061°47'0 0.0
2017-Mar-01 17:33N 17°01' W 061°47'0 0.0
2017-Mar-01 16:33N 17°01' W 061°47'0 0.0
2017-Mar-01 15:33N 17°01' W 061°47'0 0.0
2017-Mar-01 14:33N 17°01' W 061°47'0 0.0
2017-Mar-01 13:33N 17°01' W 061°47'0 0.0
2017-Mar-01 12:33N 17°01' W 061°47'0 0.0
2017-Mar-01 11:33N 17°01' W 061°47'0 0.0
2017-Mar-01 10:33N 17°01' W 061°47'0 0.0
2017-Mar-01 09:34N 17°01' W 061°47'0 0.0
2017-Mar-01 08:33N 17°01' W 061°47'0 0.0
2017-Mar-01 07:34N 17°01' W 061°47'0 0.0
2017-Mar-01 06:33N 17°01' W 061°47'0 0.0
2017-Mar-01 05:33N 17°01' W 061°47'0 0.0
2017-Mar-01 04:33N 17°01' W 061°47'0 0.0
2017-Mar-01 03:33N 17°01' W 061°47'0 0.0
2017-Mar-01 02:33N 17°01' W 061°47'0 0.0
2017-Mar-01 01:33N 17°01' W 061°47'0 0.0
2017-Mar-01 00:33N 17°01' W 061°47'0 0.0
2017-Feb-28 23:33N 17°01' W 061°47'0 0.0
2017-Feb-28 22:33N 17°01' W 061°47'4 3.8
2017-Feb-28 21:33N 16°60' W 061°50'7 7.2
2017-Feb-28 20:33N 17°03' W 061°57'9 8.7
2017-Feb-28 19:33N 17°08' W 062°04'10 8.6
2017-Feb-28 18:26N 17°14' W 062°12'7 8.5
2017-Feb-28 17:33N 17°19' W 062°18'  
2017-Feb-25 01:15N 17°57' W 063°00'6 7.0
2017-Feb-25 00:24N 17°60' W 063°06'6 6.9
2017-Feb-24 23:33N 18°04' W 063°10'76 3.1
2017-Feb-23 22:33N 18°28' W 064°26'3 2.5
2017-Feb-23 21:33N 18°26' W 064°27'0 0.0
2017-Feb-23 20:33N 18°26' W 064°27'7 6.6
2017-Feb-23 19:33N 18°25' W 064°34'4 1.3
2017-Feb-23 16:33N 18°22' W 064°37'2 1.9
2017-Feb-23 15:33N 18°21' W 064°36'0 0.0
2017-Feb-22 18:23N 18°21' W 064°36'0 0.0
2017-Feb-22 14:33N 18°21' W 064°36'0 0.0
2017-Feb-22 06:33N 18°21' W 064°36'  
Track history (hours):
 
Tides and Currents Weather Stations Pressure Air Temp Water Temp Dewpoint Dewpoint Depression Visibility Wind Speed Wind Dir Waves Ship Positions

Geronimo

Last reported at 2017-Mar-03 20:11 UTC. Time now 2017-Mar-23 12:34 UTC.
Position N 16°02' W 061°47'.
Warning: this ship's position is 19 days out of date.

Length 20 m; draft 2.9 m.

Type: Sailing vessel. MMSI: 244620501.

Date/timePositionNaut miles runAvg speedWind from/ knotsBaromVisibWave heightAir tempDewpointWater temp
2017-Mar-03 20:11N 16°02' W 061°47'6 7.6
2017-Mar-03 19:26N 16°08' W 061°48'8 8.4
2017-Mar-03 18:28N 16°16' W 061°49'3 1.4
2017-Mar-03 16:31N 16°18' W 061°48'0 0.0
2017-Mar-03 15:04N 16°18' W 061°48'0 0.0
2017-Mar-03 14:33N 16°18' W 061°48'0 0.0
2017-Mar-03 13:33N 16°18' W 061°48'0 0.0
2017-Mar-03 12:32N 16°18' W 061°48'0 0.0
2017-Mar-03 11:33N 16°18' W 061°48'0 0.0
2017-Mar-03 10:33N 16°18' W 061°48'0 0.0
2017-Mar-03 09:25N 16°18' W 061°48'0 0.0
2017-Mar-03 08:33N 16°18' W 061°48'0 0.0
2017-Mar-03 07:33N 16°18' W 061°48'0 0.0
2017-Mar-03 06:27N 16°18' W 061°48'0 0.0
2017-Mar-03 05:33N 16°18' W 061°48'0 0.0
2017-Mar-03 04:32N 16°18' W 061°48'0 0.0
2017-Mar-03 03:33N 16°18' W 061°48'0 0.0
2017-Mar-03 02:31N 16°18' W 061°48'0 0.0
2017-Mar-03 01:29N 16°18' W 061°48'0 0.0
2017-Mar-02 23:33N 16°18' W 061°48'5 2.0
2017-Mar-02 21:06N 16°23' W 061°49'5 9.6
2017-Mar-02 20:33N 16°28' W 061°49'9 9.4
2017-Mar-02 19:33N 16°38' W 061°49'9 9.1
2017-Mar-02 18:33N 16°47' W 061°48'9 9.1
2017-Mar-02 17:33N 16°56' W 061°47'5 5.1
2017-Mar-02 16:33N 17°01' W 061°47'0 0.0
2017-Mar-02 15:33N 17°01' W 061°47'0 0.0
2017-Mar-02 14:33N 17°01' W 061°47'0 0.0
2017-Mar-02 13:33N 17°01' W 061°47'0 0.0
2017-Mar-02 12:33N 17°01' W 061°47'0 0.0
2017-Mar-02 11:33N 17°01' W 061°47'0 0.0
2017-Mar-02 10:33N 17°01' W 061°47'0 0.0
2017-Mar-02 09:33N 17°01' W 061°47'0 0.0
2017-Mar-02 08:33N 17°01' W 061°47'0 0.0
2017-Mar-02 07:33N 17°01' W 061°47'0 0.0
2017-Mar-02 06:33N 17°01' W 061°47'0 0.0
2017-Mar-02 05:33N 17°01' W 061°47'0 0.0
2017-Mar-02 04:33N 17°01' W 061°47'0 0.0
2017-Mar-02 03:33N 17°01' W 061°47'0 0.0
2017-Mar-02 02:33N 17°01' W 061°47'0 0.0
2017-Mar-02 01:33N 17°01' W 061°47'0 0.0
2017-Mar-02 00:33N 17°01' W 061°47'0 0.0
2017-Mar-01 23:33N 17°01' W 061°47'0 0.0
2017-Mar-01 22:33N 17°01' W 061°47'0 0.0
2017-Mar-01 21:33N 17°01' W 061°47'0 0.0
2017-Mar-01 20:33N 17°01' W 061°47'0 0.0
2017-Mar-01 19:33N 17°01' W 061°47'0 0.0
2017-Mar-01 18:33N 17°01' W 061°47'0 0.0
2017-Mar-01 17:33N 17°01' W 061°47'0 0.0
2017-Mar-01 16:33N 17°01' W 061°47'0 0.0
2017-Mar-01 15:33N 17°01' W 061°47'0 0.0
2017-Mar-01 14:33N 17°01' W 061°47'0 0.0
2017-Mar-01 13:33N 17°01' W 061°47'0 0.0
2017-Mar-01 12:33N 17°01' W 061°47'0 0.0
2017-Mar-01 11:33N 17°01' W 061°47'0 0.0
2017-Mar-01 10:33N 17°01' W 061°47'0 0.0
2017-Mar-01 09:34N 17°01' W 061°47'0 0.0
2017-Mar-01 08:33N 17°01' W 061°47'0 0.0
2017-Mar-01 07:34N 17°01' W 061°47'0 0.0
2017-Mar-01 06:33N 17°01' W 061°47'0 0.0
2017-Mar-01 05:33N 17°01' W 061°47'0 0.0
2017-Mar-01 04:33N 17°01' W 061°47'0 0.0
2017-Mar-01 03:33N 17°01' W 061°47'0 0.0
2017-Mar-01 02:33N 17°01' W 061°47'0 0.0
2017-Mar-01 01:33N 17°01' W 061°47'0 0.0
2017-Mar-01 00:33N 17°01' W 061°47'0 0.0
2017-Feb-28 23:33N 17°01' W 061°47'0 0.0
2017-Feb-28 22:33N 17°01' W 061°47'4 3.8
2017-Feb-28 21:33N 16°60' W 061°50'7 7.2
2017-Feb-28 20:33N 17°03' W 061°57'9 8.7
2017-Feb-28 19:33N 17°08' W 062°04'10 8.6
2017-Feb-28 18:26N 17°14' W 062°12'7 8.5
2017-Feb-28 17:33N 17°19' W 062°18'  
2017-Feb-25 01:15N 17°57' W 063°00'6 7.0
2017-Feb-25 00:24N 17°60' W 063°06'6 6.9
2017-Feb-24 23:33N 18°04' W 063°10'76 3.1
2017-Feb-23 22:33N 18°28' W 064°26'3 2.5
2017-Feb-23 21:33N 18°26' W 064°27'0 0.0
2017-Feb-23 20:33N 18°26' W 064°27'7 6.6
2017-Feb-23 19:33N 18°25' W 064°34'4 1.3
2017-Feb-23 16:33N 18°22' W 064°37'2 1.9
2017-Feb-23 15:33N 18°21' W 064°36'0 0.0
2017-Feb-22 18:23N 18°21' W 064°36'0 0.0
2017-Feb-22 14:33N 18°21' W 064°36'0 0.0
2017-Feb-22 06:33N 18°21' W 064°36'  

Dump ship's entire track history